createdAt,value
2018-05-25T00:05:44.456Z,13.33
2018-05-25T00:11:49.120Z,15.63
2018-05-25T00:17:54.242Z,13.57
2018-05-25T00:23:58.874Z,14.00
2018-05-25T00:30:03.991Z,15.70
2018-05-25T00:36:08.402Z,16.20
2018-05-25T00:42:12.764Z,15.57
2018-05-25T00:48:17.143Z,14.07
2018-05-25T00:54:21.627Z,14.50
2018-05-25T01:00:27.053Z,13.23
2018-05-25T01:06:31.428Z,14.10
2018-05-25T01:12:35.821Z,12.67
2018-05-25T01:18:40.231Z,14.50
2018-05-25T01:24:44.606Z,12.73
2018-05-25T01:30:49.739Z,13.60
2018-05-25T01:36:55.274Z,13.20
2018-05-25T01:42:59.650Z,11.17
2018-05-25T01:49:04.853Z,9.93
2018-05-25T01:55:09.263Z,10.13
2018-05-25T02:01:13.609Z,8.07
2018-05-25T02:07:17.956Z,9.07
2018-05-25T02:13:22.573Z,9.23
2018-05-25T02:19:26.908Z,8.60
2018-05-25T02:25:32.153Z,9.23
2018-05-25T02:31:36.568Z,8.63
2018-05-25T02:37:40.924Z,8.57
2018-05-25T02:43:45.294Z,7.80
2018-05-25T02:49:50.193Z,8.20
2018-05-25T02:55:54.762Z,7.20
2018-05-25T03:01:59.304Z,7.50
2018-05-25T03:08:03.698Z,11.37
2018-05-25T03:14:08.059Z,14.40
2018-05-25T03:20:12.474Z,11.60
2018-05-25T03:26:17.681Z,9.60
2018-05-25T03:32:23.763Z,8.97
2018-05-25T03:38:28.172Z,8.80
2018-05-25T03:44:32.535Z,8.50
2018-05-25T03:50:36.886Z,7.47
2018-05-25T03:56:41.236Z,7.77
2018-05-25T04:02:45.666Z,9.23
2018-05-25T04:08:50.432Z,9.03
2018-05-25T04:14:55.820Z,7.57
2018-05-25T04:21:00.170Z,8.17
2018-05-25T04:27:05.429Z,8.87
2018-05-25T04:33:09.776Z,8.50
2018-05-25T04:39:14.157Z,7.70
2018-05-25T04:45:18.516Z,7.13
2018-05-25T04:51:23.408Z,7.07
2018-05-25T04:57:28.589Z,9.33
2018-05-25T05:03:33.051Z,8.80
2018-05-25T05:09:37.399Z,10.00
2018-05-25T05:15:41.851Z,9.07
2018-05-25T05:21:46.186Z,9.43
2018-05-25T05:27:50.657Z,9.23
2018-05-25T05:33:55.472Z,10.67
2018-05-25T05:40:00.657Z,9.20
2018-05-25T05:46:05.029Z,9.17
2018-05-25T05:52:09.445Z,10.33
2018-05-25T05:58:13.807Z,10.30
2018-05-25T06:04:18.154Z,10.73
2018-05-25T06:10:23.007Z,12.27
2018-05-25T06:16:27.427Z,11.00
2018-05-25T06:22:31.920Z,12.73
2018-05-25T06:28:36.330Z,11.80
2018-05-25T06:34:41.459Z,9.10
2018-05-25T06:40:45.840Z,7.63
2018-05-25T06:46:50.434Z,8.80
2018-05-25T06:52:55.321Z,7.10
2018-05-25T06:58:59.809Z,7.77
2018-05-25T07:05:04.175Z,8.33
2018-05-25T07:11:08.560Z,7.07
2018-05-25T07:17:12.926Z,7.53
2018-05-25T07:23:17.374Z,8.07
2018-05-25T07:29:24.398Z,10.57
2018-05-25T07:35:28.776Z,8.10
2018-05-25T07:41:34.137Z,11.50
2018-05-25T07:47:39.685Z,7.57
2018-05-25T07:53:44.086Z,7.30
2018-05-25T07:59:48.544Z,8.80
2018-05-25T08:05:53.467Z,7.90
2018-05-25T08:11:58.637Z,7.40
2018-05-25T08:18:03.010Z,7.97
2018-05-25T08:24:07.486Z,8.13
2018-05-25T08:30:11.996Z,7.87
2018-05-25T08:36:16.394Z,6.83
2018-05-25T08:42:21.045Z,6.70
2018-05-25T08:48:25.381Z,6.37
2018-05-25T08:54:29.736Z,6.40
2018-05-25T09:00:34.182Z,6.63
2018-05-25T09:06:38.528Z,8.53
2018-05-25T09:12:44.415Z,8.20
2018-05-25T09:18:48.921Z,8.00
2018-05-25T09:24:54.267Z,8.73
2018-05-25T09:30:58.639Z,8.30
2018-05-25T09:37:03.764Z,8.43
2018-05-25T09:43:08.116Z,8.20
2018-05-25T09:49:13.311Z,9.30
2018-05-25T09:55:17.833Z,9.30
2018-05-25T10:01:22.609Z,9.40
2018-05-25T10:07:27.116Z,10.30
2018-05-25T10:13:31.486Z,9.70
2018-05-25T10:19:37.466Z,9.40
2018-05-25T10:25:41.963Z,8.83
2018-05-25T10:31:46.367Z,8.73
2018-05-25T10:37:52.186Z,8.63
2018-05-25T10:43:56.648Z,7.80
2018-05-25T10:50:01.007Z,9.23
2018-05-25T10:56:05.368Z,8.00
2018-05-25T11:02:09.739Z,8.60
2018-05-25T11:08:14.100Z,9.20
2018-05-25T11:14:18.452Z,7.73
2018-05-25T11:20:22.882Z,8.57
2018-05-25T11:26:27.264Z,10.00
2018-05-25T11:32:31.641Z,10.27
2018-05-25T11:38:35.997Z,8.10
2018-05-25T11:44:40.354Z,8.03
2018-05-25T11:50:44.705Z,7.90
2018-05-25T11:56:49.066Z,8.90
2018-05-25T12:02:53.669Z,8.73
2018-05-25T12:08:58.083Z,9.87
2018-05-25T12:15:02.599Z,9.80
2018-05-25T12:21:07.004Z,9.90
2018-05-25T12:27:11.375Z,9.53
2018-05-25T12:33:15.860Z,10.80
2018-05-25T12:39:20.573Z,9.40
2018-05-25T12:45:25.829Z,10.60
2018-05-25T12:51:30.202Z,10.83
2018-05-25T12:57:34.556Z,10.00
2018-05-25T13:03:38.920Z,10.90
2018-05-25T13:09:44.047Z,9.10
2018-05-25T13:15:48.405Z,8.83
2018-05-25T13:21:53.284Z,10.13
2018-05-25T13:27:57.641Z,8.60
2018-05-25T13:34:02.889Z,8.50
2018-05-25T13:40:07.315Z,9.60
2018-05-25T13:46:12.457Z,8.70
2018-05-25T13:52:16.833Z,8.30
2018-05-25T13:58:21.480Z,9.07
2018-05-25T14:04:25.840Z,9.60
2018-05-25T14:10:30.977Z,9.80
2018-05-25T14:16:35.394Z,10.27
2018-05-25T14:22:39.828Z,9.30
2018-05-25T14:28:44.246Z,9.27
2018-05-25T14:34:48.969Z,9.40
2018-05-25T14:40:53.865Z,9.43
2018-05-25T14:46:58.270Z,9.03
2018-05-25T14:53:02.688Z,10.20
2018-05-25T14:59:07.437Z,10.30
2018-05-25T15:05:11.727Z,9.47
2018-05-25T15:11:16.317Z,10.03
2018-05-25T15:17:20.960Z,9.47
2018-05-25T15:23:25.441Z,10.53
2018-05-25T15:29:29.848Z,8.97
2018-05-25T15:35:34.217Z,9.47
2018-05-25T15:41:40.151Z,8.47
2018-05-25T15:47:45.309Z,8.33
2018-05-25T15:53:50.102Z,8.10
2018-05-25T15:59:54.625Z,9.27
2018-05-25T16:05:58.978Z,8.20
2018-05-25T16:12:03.336Z,8.40
2018-05-25T16:18:08.476Z,7.97
2018-05-25T16:24:12.832Z,8.60
2018-05-25T16:30:17.337Z,8.17
2018-05-25T16:36:22.351Z,8.13
2018-05-25T16:42:26.708Z,9.37
2018-05-25T16:48:31.074Z,8.33
2018-05-25T16:54:35.443Z,9.63
2018-05-25T17:00:39.795Z,8.57
2018-05-25T17:06:44.240Z,9.40
2018-05-25T17:12:50.908Z,7.40
2018-05-25T17:18:55.274Z,7.63
2018-05-25T17:24:59.642Z,7.50
2018-05-25T17:31:04.001Z,7.83
2018-05-25T17:37:09.130Z,7.77
2018-05-25T17:43:13.526Z,9.20
2018-05-25T17:49:17.872Z,9.13
2018-05-25T17:55:22.909Z,8.03
2018-05-25T18:01:27.296Z,7.83
2018-05-25T18:07:31.632Z,7.77
2018-05-25T18:13:36.012Z,8.00
2018-05-25T18:19:40.376Z,8.70
2018-05-25T18:25:44.724Z,10.23
2018-05-25T18:31:49.081Z,9.87
2018-05-25T18:37:54.240Z,10.20
2018-05-25T18:43:58.617Z,9.40
2018-05-25T18:50:03.839Z,9.60
2018-05-25T18:56:08.957Z,9.47
2018-05-25T19:02:13.313Z,10.07
2018-05-25T19:08:18.447Z,9.60
2018-05-25T19:14:23.679Z,12.20
2018-05-25T19:20:28.815Z,10.20
2018-05-25T19:26:33.164Z,9.93
2018-05-25T19:32:38.352Z,10.07
2018-05-25T19:38:43.523Z,9.40
2018-05-25T19:44:47.885Z,9.10
2018-05-25T19:50:52.528Z,9.20
2018-05-25T19:56:56.970Z,9.10
2018-05-25T20:03:01.422Z,9.97
2018-05-25T20:09:06.693Z,8.43
2018-05-25T20:15:11.101Z,8.80
2018-05-25T20:21:15.460Z,9.20
2018-05-25T20:27:20.117Z,8.73
2018-05-25T20:33:24.527Z,9.60
2018-05-25T20:39:28.901Z,9.40
2018-05-25T20:45:33.245Z,9.00
2018-05-25T20:51:37.778Z,9.73
2018-05-25T20:57:42.924Z,8.67
2018-05-25T21:03:47.280Z,9.97
2018-05-25T21:09:52.984Z,10.60
2018-05-25T21:15:58.201Z,10.30
2018-05-25T21:22:02.609Z,10.07
2018-05-25T21:28:06.922Z,10.10
2018-05-25T21:34:11.299Z,9.00
2018-05-25T21:40:15.641Z,12.60
2018-05-25T21:46:20.070Z,11.97
2018-05-25T21:52:24.593Z,12.00
2018-05-25T21:58:28.913Z,12.10
2018-05-25T22:04:33.270Z,12.20
2018-05-25T22:10:37.654Z,14.13
2018-05-25T22:16:42.049Z,14.17
2018-05-25T22:22:46.413Z,12.40
2018-05-25T22:28:51.392Z,12.43
2018-05-25T22:34:55.793Z,12.23
2018-05-25T22:41:00.160Z,13.63
2018-05-25T22:47:22.372Z,13.27
2018-05-25T22:53:38.191Z,13.37
2018-05-25T22:59:42.552Z,10.27
2018-05-25T23:05:46.914Z,11.03
2018-05-25T23:11:52.391Z,8.80
2018-05-25T23:17:56.824Z,9.10
2018-05-25T23:24:01.341Z,7.80
2018-05-25T23:30:06.469Z,8.80
2018-05-25T23:36:10.828Z,8.57
2018-05-25T23:42:15.954Z,12.97
2018-05-25T23:48:21.508Z,9.50
2018-05-25T23:54:26.050Z,8.43
